Time;durP1;ratioP1;P1;durP2;ratioP2;P2;SDS_P1;SDS_P2;PMS_P1;PMS_P2;Temp;Humidity;BMP_temperature;BMP_pressure;BME280_temperature;BME280_humidity;BME280_pressure;Samples;Min_cycle;Max_cycle;Signal;HPM_P1;HPM_P2
2022/03/25 00:02:11;;;;;;;34.60;15.90;;;4.90;49.90;;;;;;5084693;28;20174;-62
2022/03/25 00:04:36;;;;;;;30.73;17.20;;;4.90;50.00;;;;;;5080455;28;20471;-62
2022/03/25 00:07:02;;;;;;;46.30;19.43;;;4.90;49.90;;;;;;5078009;28;20241;-63
2022/03/25 00:09:28;;;;;;;33.77;16.30;;;4.90;50.00;;;;;;5083883;28;20197;-62
2022/03/25 00:11:53;;;;;;;31.47;17.10;;;4.80;50.00;;;;;;5081917;28;20174;-62
2022/03/25 00:14:19;;;;;;;25.93;15.67;;;4.80;50.10;;;;;;5083559;28;20185;-62
2022/03/25 00:16:46;;;;;;;28.20;15.70;;;4.80;50.10;;;;;;5083059;28;20432;-63
2022/03/25 00:19:11;;;;;;;29.83;16.50;;;4.70;50.10;;;;;;5081879;28;20668;-62
2022/03/25 00:21:37;;;;;;;29.90;15.70;;;4.70;50.20;;;;;;5076921;28;20435;-63
2022/03/25 00:24:04;;;;;;;29.63;15.20;;;4.70;50.20;;;;;;5080440;28;20712;-62
2022/03/25 00:26:30;;;;;;;32.23;15.07;;;4.70;50.30;;;;;;5084618;28;20535;-62
2022/03/25 00:28:55;;;;;;;29.27;15.20;;;4.70;50.30;;;;;;5078161;28;20950;-62
2022/03/25 00:31:21;;;;;;;27.77;14.40;;;4.60;50.20;;;;;;5084445;28;20467;-62
2022/03/25 00:33:49;;;;;;;25.80;15.37;;;4.60;50.30;;;;;;5084291;28;20178;-62
2022/03/25 00:36:17;;;;;;;28.90;15.73;;;4.50;50.30;;;;;;5083832;28;20675;-62
2022/03/25 00:38:43;;;;;;;29.23;15.50;;;4.50;50.40;;;;;;5078007;28;20453;-63
2022/03/25 00:41:11;;;;;;;27.37;15.80;;;4.50;50.60;;;;;;5081288;28;20794;-62
2022/03/25 00:43:37;;;;;;;26.27;14.57;;;4.40;50.60;;;;;;5078884;28;20464;-62
2022/03/25 00:46:02;;;;;;;28.30;15.20;;;4.40;50.70;;;;;;5080807;28;20951;-62
2022/03/25 00:48:28;;;;;;;30.73;16.10;;;4.40;50.70;;;;;;5082247;28;20193;-62
2022/03/25 00:50:55;;;;;;;25.97;14.40;;;4.30;50.60;;;;;;5081950;28;20235;-62
2022/03/25 00:53:21;;;;;;;32.03;16.10;;;4.30;50.70;;;;;;5077086;28;20545;-63
2022/03/25 00:55:47;;;;;;;29.13;15.93;;;4.20;50.80;;;;;;5082901;28;21021;-62
2022/03/25 00:58:14;;;;;;;27.50;16.30;;;4.20;50.80;;;;;;5082642;28;20975;-62
2022/03/25 01:00:41;;;;;;;29.30;16.70;;;4.20;50.80;;;;;;5081886;28;20182;-62
2022/03/25 01:03:07;;;;;;;27.37;15.30;;;4.20;50.90;;;;;;5080415;28;20475;-62
2022/03/25 01:05:34;;;;;;;27.17;15.03;;;4.10;50.80;;;;;;5079014;28;20485;-62
2022/03/25 01:07:59;;;;;;;28.63;16.13;;;4.10;50.80;;;;;;5078534;28;20478;-62
2022/03/25 01:10:25;;;;;;;30.17;15.60;;;4.00;50.90;;;;;;5077025;28;20436;-62
2022/03/25 01:12:51;;;;;;;27.23;15.40;;;4.00;51.00;;;;;;5079709;28;20621;-62
2022/03/25 01:15:17;;;;;;;24.67;15.30;;;3.90;51.10;;;;;;5081802;28;20285;-62
2022/03/25 01:17:43;;;;;;;31.73;16.20;;;3.90;51.20;;;;;;5079562;28;20206;-63
2022/03/25 01:20:09;;;;;;;43.03;16.20;;;3.90;51.40;;;;;;5074422;28;20178;-62
2022/03/25 01:22:35;;;;;;;29.50;15.30;;;3.90;51.50;;;;;;5078956;28;20455;-62
2022/03/25 01:25:01;;;;;;;31.43;16.43;;;3.90;51.50;;;;;;5075161;28;20460;-62
2022/03/25 01:27:27;;;;;;;27.90;15.47;;;3.80;51.50;;;;;;5081969;28;20450;-62
2022/03/25 01:29:52;;;;;;;32.30;16.10;;;3.80;51.60;;;;;;5082055;28;20519;-62
2022/03/25 01:32:18;;;;;;;26.37;15.20;;;3.80;51.70;;;;;;5077327;28;20261;-62
2022/03/25 01:34:44;;;;;;;26.97;15.40;;;3.70;51.70;;;;;;5081832;28;20190;-62
2022/03/25 01:37:11;;;;;;;30.63;17.03;;;3.70;51.70;;;;;;5078879;28;20198;-62
2022/03/25 01:39:37;;;;;;;30.40;16.30;;;3.70;51.80;;;;;;5080664;28;20182;-63
2022/03/25 01:42:03;;;;;;;27.10;15.80;;;3.70;52.00;;;;;;5079600;28;20448;-62
2022/03/25 01:44:30;;;;;;;29.20;16.57;;;3.60;52.00;;;;;;5076003;28;20285;-62
2022/03/25 01:46:58;;;;;;;34.13;17.00;;;3.60;52.10;;;;;;5079569;28;20269;-62
2022/03/25 01:49:23;;;;;;;29.90;16.33;;;3.50;52.20;;;;;;5081930;28;20427;-62
2022/03/25 01:51:51;;;;;;;31.77;17.50;;;3.50;52.20;;;;;;5080797;28;20451;-62
2022/03/25 01:54:22;;;;;;;33.60;17.23;;;3.50;52.10;;;;;;5077379;28;20209;-62
2022/03/25 01:56:57;;;;;;;31.30;16.57;;;3.50;52.20;;;;;;5080782;28;20453;-62
2022/03/25 01:59:24;;;;;;;29.50;17.27;;;3.40;52.20;;;;;;5097628;27;20958;-62
2022/03/25 02:01:50;;;;;;;33.53;17.07;;;3.40;52.40;;;;;;5076473;28;20440;-62
2022/03/25 02:04:17;;;;;;;35.13;17.33;;;3.40;52.40;;;;;;5079175;28;21046;-62
2022/03/25 02:06:45;;;;;;;30.27;16.60;;;3.30;52.50;;;;;;5074443;28;20428;-62
2022/03/25 02:09:10;;;;;;;35.47;17.07;;;3.30;52.50;;;;;;5076932;28;20432;-62
2022/03/25 02:11:37;;;;;;;26.83;15.60;;;3.30;52.60;;;;;;5078533;28;20424;-62
2022/03/25 02:14:03;;;;;;;26.27;15.33;;;3.20;52.60;;;;;;5079254;28;20554;-62
2022/03/25 02:16:42;;;;;;;29.13;15.60;;;3.20;52.70;;;;;;5079423;28;20433;-62
2022/03/25 02:19:09;;;;;;;32.77;17.57;;;3.20;52.90;;;;;;5078691;28;20177;-62
2022/03/25 02:21:38;;;;;;;31.60;17.60;;;3.10;52.80;;;;;;5076878;28;20437;-62
2022/03/25 02:24:06;;;;;;;32.43;16.23;;;3.10;52.90;;;;;;5078531;28;20453;-62
2022/03/25 02:26:32;;;;;;;29.97;15.40;;;3.10;52.90;;;;;;5084785;28;21266;-62
2022/03/25 02:29:00;;;;;;;31.70;15.57;;;3.10;53.00;;;;;;5077327;28;20455;-62
2022/03/25 02:31:26;;;;;;;34.83;14.67;;;3.00;52.90;;;;;;5078961;28;20987;-62
2022/03/25 02:33:58;;;;;;;26.97;15.43;;;3.00;52.90;;;;;;5080969;28;20469;-60
2022/03/25 02:36:24;;;;;;;25.80;14.30;;;3.00;52.90;;;;;;5074938;28;20429;-61
2022/03/25 02:38:50;;;;;;;28.47;15.00;;;2.90;53.00;;;;;;5078775;28;20536;-61
2022/03/25 02:41:15;;;;;;;28.07;15.30;;;2.90;53.20;;;;;;5076506;28;21019;-60
2022/03/25 02:43:41;;;;;;;28.73;15.40;;;2.80;53.30;;;;;;5073189;28;20212;-61
2022/03/25 02:46:07;;;;;;;33.00;16.50;;;2.80;53.50;;;;;;5093847;28;20176;-62
2022/03/25 02:48:33;;;;;;;27.80;15.23;;;2.80;53.60;;;;;;5079682;28;20292;-62
2022/03/25 02:50:59;;;;;;;29.60;15.33;;;2.80;53.60;;;;;;5078696;28;20281;-62
2022/03/25 02:53:25;;;;;;;26.37;15.77;;;2.80;53.60;;;;;;5076556;28;20508;-61
2022/03/25 02:55:51;;;;;;;32.23;15.77;;;2.80;53.70;;;;;;5078201;28;20509;-62
2022/03/25 02:58:18;;;;;;;28.10;15.00;;;2.80;53.70;;;;;;5077769;28;20526;-62
2022/03/25 03:00:43;;;;;;;31.73;17.10;;;2.80;53.80;;;;;;5074372;28;20427;-62
2022/03/25 03:03:09;;;;;;;27.50;14.63;;;2.80;53.70;;;;;;5080567;28;20415;-61
2022/03/25 03:05:35;;;;;;;31.87;15.63;;;2.80;53.80;;;;;;5080668;28;20927;-62
2022/03/25 03:08:01;;;;;;;28.70;16.27;;;2.80;53.70;;;;;;5079241;28;20297;-62
2022/03/25 03:10:27;;;;;;;34.37;15.40;;;2.70;53.70;;;;;;5081797;28;20199;-62
2022/03/25 03:12:53;;;;;;;30.03;15.23;;;2.70;53.70;;;;;;5077604;28;20802;-62
2022/03/25 03:15:21;;;;;;;27.23;15.23;;;2.70;53.80;;;;;;5072933;28;20514;-61
2022/03/25 03:17:48;;;;;;;31.33;17.37;;;2.60;53.80;;;;;;5079105;28;20444;-62
2022/03/25 03:20:16;;;;;;;26.23;15.80;;;2.60;53.90;;;;;;5079639;28;20426;-63
2022/03/25 03:22:42;;;;;;;26.77;14.97;;;2.60;53.90;;;;;;5077005;28;20430;-62
2022/03/25 03:25:12;;;;;;;29.37;14.80;;;2.60;53.90;;;;;;5075461;28;21141;-61
2022/03/25 03:27:39;;;;;;;27.23;15.33;;;2.60;54.00;;;;;;5078463;28;20444;-61
2022/03/25 03:30:06;;;;;;;26.57;15.20;;;2.60;54.10;;;;;;5081009;28;20458;-62
2022/03/25 03:32:33;;;;;;;28.93;15.13;;;2.50;54.10;;;;;;5078287;28;20427;-61
2022/03/25 03:34:58;;;;;;;30.03;15.90;;;2.50;54.20;;;;;;5082215;28;20489;-62
2022/03/25 03:37:25;;;;;;;30.60;16.20;;;2.50;54.30;;;;;;5080791;28;20482;-60
2022/03/25 03:39:50;;;;;;;32.67;16.63;;;2.40;54.30;;;;;;5080044;28;20178;-61
2022/03/25 03:42:16;;;;;;;31.80;16.70;;;2.40;54.40;;;;;;5076923;28;20943;-61
2022/03/25 03:44:42;;;;;;;35.03;16.80;;;2.40;54.40;;;;;;5079455;28;20206;-61
2022/03/25 03:47:08;;;;;;;31.23;15.77;;;2.30;54.40;;;;;;5082152;28;20704;-61
2022/03/25 03:49:35;;;;;;;31.60;15.20;;;2.30;54.50;;;;;;5083260;28;20181;-61
2022/03/25 03:52:01;;;;;;;30.20;15.13;;;2.30;55.10;;;;;;5081448;28;20958;-60
2022/03/25 03:54:27;;;;;;;26.03;14.93;;;2.30;54.70;;;;;;5079401;28;20466;-60
2022/03/25 03:56:54;;;;;;;28.20;16.20;;;2.30;54.70;;;;;;5081419;28;20437;-61
2022/03/25 03:59:19;;;;;;;29.83;15.03;;;2.30;54.60;;;;;;5081309;28;20435;-61
2022/03/25 04:01:45;;;;;;;31.13;15.87;;;2.20;54.60;;;;;;5082515;28;20484;-61
2022/03/25 04:04:12;;;;;;;28.20;15.57;;;2.20;54.80;;;;;;5081603;28;20197;-61
2022/03/25 04:06:37;;;;;;;26.40;15.37;;;2.20;54.80;;;;;;5084660;28;20833;-60
2022/03/25 04:09:03;;;;;;;28.90;16.40;;;2.10;54.80;;;;;;5083427;28;20467;-60
2022/03/25 04:11:28;;;;;;;32.70;15.63;;;2.10;55.00;;;;;;5085248;28;20624;-61
2022/03/25 04:13:54;;;;;;;36.13;17.30;;;2.10;55.20;;;;;;5083885;28;20181;-60
2022/03/25 04:16:21;;;;;;;30.93;15.13;;;2.00;55.40;;;;;;5084993;28;20284;-61
2022/03/25 04:18:47;;;;;;;31.90;16.10;;;2.00;55.40;;;;;;5086121;28;20181;-61
2022/03/25 04:21:12;;;;;;;26.93;15.40;;;2.00;55.70;;;;;;5085537;28;20438;-61
2022/03/25 04:23:38;;;;;;;28.17;15.47;;;1.90;55.90;;;;;;5084227;28;20196;-60
2022/03/25 04:26:04;;;;;;;32.30;15.53;;;1.90;56.00;;;;;;5081442;28;20193;-60
2022/03/25 04:28:29;;;;;;;37.43;16.03;;;1.90;56.10;;;;;;5085283;28;20198;-61
2022/03/25 04:30:55;;;;;;;25.30;14.23;;;1.90;56.30;;;;;;5082431;28;20429;-61
2022/03/25 04:33:21;;;;;;;33.20;15.67;;;1.80;56.20;;;;;;5082812;28;20176;-61
2022/03/25 04:35:47;;;;;;;30.30;16.10;;;1.80;56.30;;;;;;5079958;28;21351;-61
2022/03/25 04:38:14;;;;;;;29.27;15.80;;;1.80;56.60;;;;;;5086073;28;20205;-61
2022/03/25 04:40:41;;;;;;;29.03;15.70;;;1.70;56.60;;;;;;5085289;28;20166;-61
2022/03/25 04:43:06;;;;;;;32.43;16.57;;;1.70;56.70;;;;;;5086798;28;20436;-61
2022/03/25 04:45:32;;;;;;;28.47;15.93;;;1.70;57.10;;;;;;5083031;28;20486;-61
2022/03/25 04:47:58;;;;;;;35.93;15.90;;;1.60;57.30;;;;;;5080024;28;20731;-62
2022/03/25 04:50:24;;;;;;;31.10;15.57;;;1.70;57.50;;;;;;5085811;28;20435;-61
2022/03/25 04:52:50;;;;;;;29.20;16.67;;;1.60;57.30;;;;;;5084871;28;20422;-61
2022/03/25 04:55:17;;;;;;;30.57;16.07;;;1.60;57.50;;;;;;5083786;28;20507;-60
2022/03/25 04:57:43;;;;;;;35.73;15.47;;;1.60;57.60;;;;;;5085548;28;20513;-58
2022/03/25 05:00:10;;;;;;;32.83;16.67;;;1.60;57.80;;;;;;5087078;28;20517;-56
2022/03/25 05:02:36;;;;;;;29.50;16.97;;;1.60;57.90;;;;;;5083731;28;20193;-59
2022/03/25 05:05:02;;;;;;;31.00;15.50;;;1.60;58.00;;;;;;5088184;28;20457;-61
2022/03/25 05:07:28;;;;;;;29.33;16.70;;;1.60;58.20;;;;;;5084157;28;20311;-60
2022/03/25 05:09:57;;;;;;;33.40;15.60;;;1.60;58.20;;;;;;5089963;28;20521;-61
2022/03/25 05:12:23;;;;;;;28.20;15.43;;;1.70;58.40;;;;;;5093671;28;20429;-61
2022/03/25 05:14:49;;;;;;;56.37;16.83;;;1.70;58.50;;;;;;5091328;28;20576;-62
2022/03/25 05:17:15;;;;;;;43.30;17.40;;;1.70;58.40;;;;;;5079256;28;20203;-61
2022/03/25 05:19:42;;;;;;;39.63;16.47;;;1.70;58.50;;;;;;5079594;28;20240;-62
2022/03/25 05:22:08;;;;;;;33.80;17.47;;;1.70;58.60;;;;;;5077503;28;20451;-61
2022/03/25 05:24:34;;;;;;;32.20;16.30;;;1.70;58.50;;;;;;5081891;28;20574;-61
2022/03/25 05:26:59;;;;;;;28.77;15.47;;;1.70;58.40;;;;;;5079080;28;20460;-62
2022/03/25 05:29:26;;;;;;;43.80;16.43;;;1.60;58.10;;;;;;5082142;28;20416;-62
2022/03/25 05:31:52;;;;;;;32.40;16.20;;;1.60;58.50;;;;;;5079253;28;20417;-63
2022/03/25 05:34:18;;;;;;;31.20;17.97;;;1.60;58.50;;;;;;5083064;28;20483;-61
2022/03/25 05:36:44;;;;;;;32.07;17.13;;;1.60;58.60;;;;;;5077764;28;20263;-60
2022/03/25 05:39:09;;;;;;;30.40;15.70;;;1.60;58.80;;;;;;5082409;28;20182;-63
2022/03/25 05:41:35;;;;;;;60.47;19.00;;;1.60;58.90;;;;;;5085033;28;20441;-61
2022/03/25 05:44:01;;;;;;;34.10;16.20;;;1.60;59.10;;;;;;5080896;28;20676;-62
2022/03/25 05:46:27;;;;;;;31.83;16.90;;;1.60;59.10;;;;;;5085243;28;20892;-62
2022/03/25 05:48:53;;;;;;;36.00;16.53;;;1.60;59.20;;;;;;5082220;28;20533;-62
2022/03/25 05:51:18;;;;;;;30.13;16.47;;;1.60;59.40;;;;;;5086370;28;20173;-60
2022/03/25 05:53:44;;;;;;;36.90;17.93;;;1.60;59.20;;;;;;5083270;28;20186;-62
2022/03/25 05:56:11;;;;;;;40.90;17.30;;;1.60;59.30;;;;;;5085651;28;20926;-61
2022/03/25 05:58:38;;;;;;;33.40;16.77;;;1.60;59.30;;;;;;5082216;28;20447;-64
2022/03/25 06:01:05;;;;;;;31.07;16.50;;;1.60;59.20;;;;;;5078287;28;20436;-60
2022/03/25 06:03:32;;;;;;;35.50;16.70;;;1.60;59.90;;;;;;5078921;28;20429;-62
2022/03/25 06:05:59;;;;;;;35.20;18.23;;;1.60;59.40;;;;;;5080825;28;20424;-62
2022/03/25 06:08:25;;;;;;;40.10;18.23;;;1.70;60.20;;;;;;5079926;28;20463;-62
2022/03/25 06:10:51;;;;;;;34.17;18.60;;;1.70;59.50;;;;;;5082139;28;20419;-63
2022/03/25 06:13:17;;;;;;;44.43;19.27;;;1.70;59.40;;;;;;5089278;28;20174;-62
2022/03/25 06:15:44;;;;;;;37.47;18.87;;;1.80;59.30;;;;;;5093594;28;21074;-62
2022/03/25 06:18:09;;;;;;;37.30;17.63;;;1.80;59.90;;;;;;5107941;28;20444;-62
2022/03/25 06:20:35;;;;;;;40.63;17.73;;;1.90;59.90;;;;;;5071011;28;20417;-62
2022/03/25 06:23:01;;;;;;;38.73;20.10;;;2.00;59.80;;;;;;5085427;28;20249;-62
2022/03/25 06:25:28;;;;;;;42.70;19.00;;;2.10;59.80;;;;;;5085496;28;20333;-62
2022/03/25 06:28:01;;;;;;;41.73;19.37;;;2.20;59.60;;;;;;5076044;28;20458;-60
2022/03/25 06:30:34;;;;;;;34.63;18.83;;;2.20;59.70;;;;;;5086940;28;20406;-62
2022/03/25 06:33:04;;;;;;;36.10;19.40;;;2.30;59.70;;;;;;5076409;28;20427;-62
2022/03/25 06:35:30;;;;;;;32.67;16.70;;;2.40;59.40;;;;;;5106675;28;20498;-62
2022/03/25 06:37:56;;;;;;;39.43;19.30;;;2.50;59.20;;;;;;5075843;28;21347;-62
2022/03/25 06:40:22;;;;;;;35.20;17.70;;;2.60;59.20;;;;;;5088275;28;20196;-61
2022/03/25 06:42:50;;;;;;;34.43;18.33;;;2.70;59.30;;;;;;5089163;28;20433;-61
2022/03/25 06:45:17;;;;;;;37.97;17.80;;;2.80;59.20;;;;;;5084260;28;20458;-61
2022/03/25 06:47:43;;;;;;;37.00;18.67;;;2.80;59.50;;;;;;5088437;28;20447;-61
2022/03/25 06:50:10;;;;;;;36.57;18.60;;;2.90;59.20;;;;;;5089858;28;20489;-61
2022/03/25 06:52:37;;;;;;;43.20;19.17;;;3.00;59.10;;;;;;5107863;28;20422;-61
2022/03/25 06:55:03;;;;;;;52.40;19.17;;;3.10;58.60;;;;;;5086240;28;20442;-61
2022/03/25 06:57:30;;;;;;;48.40;20.83;;;3.10;58.60;;;;;;5087731;28;20489;-61
2022/03/25 06:59:56;;;;;;;55.83;24.23;;;3.20;58.20;;;;;;5084969;28;20974;-61
2022/03/25 07:02:22;;;;;;;47.27;22.10;;;3.30;58.20;;;;;;5084663;28;20426;-62
2022/03/25 07:04:48;;;;;;;46.47;20.67;;;3.40;58.10;;;;;;5085087;28;20516;-61
2022/03/25 07:07:18;;;;;;;36.40;18.00;;;3.40;57.40;;;;;;5072907;28;20995;-61
2022/03/25 07:09:43;;;;;;;40.13;19.43;;;3.40;57.40;;;;;;5091557;28;20748;-62
2022/03/25 07:12:10;;;;;;;55.33;20.10;;;3.50;57.30;;;;;;5094333;28;20423;-61
2022/03/25 07:14:35;;;;;;;44.60;18.43;;;3.60;57.40;;;;;;5089790;28;20178;-61
2022/03/25 07:17:01;;;;;;;45.97;18.30;;;3.70;57.30;;;;;;5082281;28;20419;-59
2022/03/25 07:19:27;;;;;;;36.90;18.90;;;3.80;57.30;;;;;;5096445;28;20176;-62
2022/03/25 07:21:53;;;;;;;41.90;19.93;;;3.90;57.50;;;;;;5083465;28;20431;-63
2022/03/25 07:24:20;;;;;;;39.80;19.57;;;4.00;57.60;;;;;;5085742;28;20459;-62
2022/03/25 07:26:46;;;;;;;52.33;21.40;;;4.10;57.60;;;;;;5088644;28;20189;-62
2022/03/25 07:29:11;;;;;;;44.20;21.27;;;4.20;57.40;;;;;;5083251;28;20416;-62
2022/03/25 07:31:37;;;;;;;40.87;19.13;;;4.30;57.20;;;;;;5105171;28;20165;-62
2022/03/25 07:34:03;;;;;;;48.37;21.47;;;4.40;56.80;;;;;;5086718;28;20708;-62
2022/03/25 07:36:29;;;;;;;38.10;19.83;;;4.50;56.70;;;;;;5088963;28;20436;-62
2022/03/25 07:38:55;;;;;;;46.47;20.63;;;4.60;56.60;;;;;;5094549;28;20458;-62
2022/03/25 07:41:21;;;;;;;53.80;21.60;;;4.70;57.00;;;;;;5097788;28;20454;-62
2022/03/25 07:43:47;;;;;;;46.17;21.83;;;4.80;57.30;;;;;;5108915;28;20189;-61
2022/03/25 07:46:13;;;;;;;42.50;21.40;;;4.90;57.10;;;;;;5104743;28;20302;-62
2022/03/25 07:48:38;;;;;;;42.27;20.70;;;5.10;56.80;;;;;;5091675;28;20247;-62
2022/03/25 07:51:04;;;;;;;41.27;22.60;;;5.10;56.50;;;;;;5088940;28;20846;-62
2022/03/25 07:53:32;;;;;;;49.50;19.27;;;5.30;56.60;;;;;;5085003;28;20184;-63
2022/03/25 07:55:58;;;;;;;45.00;21.13;;;5.40;56.50;;;;;;5086880;28;20181;-62
2022/03/25 07:58:25;;;;;;;41.57;20.60;;;5.60;56.40;;;;;;5088427;28;20443;-64
2022/03/25 08:00:51;;;;;;;43.70;21.30;;;5.70;55.70;;;;;;5090190;28;20432;-64
2022/03/25 08:03:18;;;;;;;42.77;20.37;;;5.80;55.10;;;;;;5097033;28;20909;-63
2022/03/25 08:05:45;;;;;;;37.77;20.30;;;6.00;55.60;;;;;;5099910;28;20417;-63
2022/03/25 08:08:11;;;;;;;46.00;20.30;;;6.00;54.70;;;;;;5099492;28;20805;-62
2022/03/25 08:10:41;;;;;;;43.33;21.70;;;6.20;54.10;;;;;;5089542;28;20727;-63
2022/03/25 08:13:07;;;;;;;42.33;20.77;;;6.30;54.10;;;;;;5104368;28;20851;-63
2022/03/25 08:15:34;;;;;;;38.83;21.93;;;6.40;53.20;;;;;;5098292;28;21195;-64
2022/03/25 08:18:03;;;;;;;46.63;20.23;;;6.50;52.90;;;;;;5093562;28;20827;-63
2022/03/25 08:20:33;;;;;;;40.03;21.00;;;6.60;52.50;;;;;;5088005;28;20886;-62
2022/03/25 08:22:59;;;;;;;47.27;22.17;;;6.80;53.20;;;;;;5100264;28;20423;-64
2022/03/25 08:28:11;;;;;;;48.40;21.10;;;7.10;52.20;;;;;;5081247;28;20423;-65
2022/03/25 08:30:37;;;;;;;43.57;21.60;;;7.20;52.30;;;;;;5090465;28;20416;-63
2022/03/25 08:33:05;;;;;;;43.87;22.00;;;7.30;51.90;;;;;;5109755;28;20165;-65
2022/03/25 08:35:31;;;;;;;48.47;20.70;;;7.50;51.60;;;;;;5095303;28;20963;-64
2022/03/25 08:37:57;;;;;;;39.97;21.53;;;7.60;51.40;;;;;;5084094;28;20487;-63
2022/03/25 08:40:25;;;;;;;44.43;22.10;;;7.80;51.10;;;;;;5095959;28;21111;-64
2022/03/25 08:42:51;;;;;;;45.47;21.23;;;7.90;51.00;;;;;;5090669;28;20503;-61
2022/03/25 08:45:17;;;;;;;49.50;22.40;;;8.10;50.60;;;;;;5090000;28;20539;-64
2022/03/25 08:47:44;;;;;;;47.33;22.37;;;8.30;50.50;;;;;;5090630;28;20618;-64
2022/03/25 08:50:12;;;;;;;36.33;19.80;;;8.40;50.30;;;;;;5091356;28;20439;-63
2022/03/25 08:52:42;;;;;;;38.33;20.53;;;8.70;50.20;;;;;;5091269;28;20423;-61
2022/03/25 08:55:09;;;;;;;41.93;20.47;;;8.90;49.80;;;;;;5086913;28;20477;-62
2022/03/25 08:57:36;;;;;;;42.63;22.10;;;9.00;49.80;;;;;;5083686;28;20435;-62
2022/03/25 09:00:06;;;;;;;38.33;20.30;;;9.30;50.20;;;;;;5081558;28;20409;-62
2022/03/25 09:02:32;;;;;;;44.63;22.70;;;9.50;49.50;;;;;;5089795;28;20527;-62
2022/03/25 09:04:58;;;;;;;41.30;21.93;;;9.70;49.10;;;;;;5087707;28;20538;-62
2022/03/25 09:07:23;;;;;;;40.17;21.63;;;9.90;48.80;;;;;;5085092;28;20628;-62
2022/03/25 09:09:49;;;;;;;34.13;19.33;;;10.10;47.20;;;;;;5092461;28;20169;-63
2022/03/25 09:12:14;;;;;;;39.33;20.37;;;10.30;47.00;;;;;;5090137;28;20177;-61
2022/03/25 09:14:40;;;;;;;43.53;20.53;;;10.60;46.20;;;;;;5092342;28;20174;-63
2022/03/25 09:17:06;;;;;;;43.40;19.10;;;10.80;45.40;;;;;;5090597;28;20236;-62
2022/03/25 09:19:32;;;;;;;47.03;19.40;;;11.00;45.20;;;;;;5090285;28;20230;-62
2022/03/25 09:21:58;;;;;;;32.17;18.30;;;11.30;45.90;;;;;;5100256;28;20804;-62
2022/03/25 09:24:23;;;;;;;40.83;18.20;;;11.50;44.90;;;;;;5089695;28;20213;-63
2022/03/25 09:26:49;;;;;;;40.20;19.73;;;11.80;43.40;;;;;;5091422;28;20169;-62
2022/03/25 09:29:15;;;;;;;31.13;16.80;;;12.00;42.60;;;;;;5095854;28;20180;-62
2022/03/25 09:31:42;;;;;;;48.10;17.07;;;12.30;43.00;;;;;;5097382;28;20173;-62
2022/03/25 09:36:53;;;;;;;30.23;16.40;;;12.90;39.40;;;;;;5089458;28;20426;-62
2022/03/25 09:39:19;;;;;;;25.70;15.70;;;13.20;38.30;;;;;;5088429;28;20431;-63
2022/03/25 09:41:46;;;;;;;34.33;17.17;;;13.50;37.40;;;;;;5078092;28;20174;-64
2022/03/25 09:44:14;;;;;;;30.30;17.10;;;13.70;36.20;;;;;;5086341;28;21310;-62
2022/03/25 09:46:42;;;;;;;31.43;17.63;;;13.90;35.70;;;;;;5087127;28;20432;-62
2022/03/25 09:49:11;;;;;;;37.63;16.90;;;14.10;35.20;;;;;;5082261;28;20509;-62
2022/03/25 09:51:38;;;;;;;28.07;15.57;;;14.20;34.60;;;;;;5088453;28;20417;-62
2022/03/25 09:54:06;;;;;;;33.00;16.67;;;14.40;35.20;;;;;;5087292;28;20463;-63
2022/03/25 09:56:32;;;;;;;34.30;16.93;;;14.60;35.60;;;;;;5086066;28;20510;-64
2022/03/25 10:01:26;;;;;;;32.10;17.67;;;15.00;34.90;;;;;;5041566;28;20473;-58
2022/03/25 10:03:52;;;;;;;35.93;17.20;;;15.20;33.90;;;;;;5044893;28;20928;-58
2022/03/25 10:06:17;;;;;;;27.60;15.07;;;15.30;34.00;;;;;;5042361;28;20247;-58
2022/03/25 10:08:45;;;;;;;32.10;17.63;;;15.40;34.30;;;;;;5044162;28;20970;-61
2022/03/25 10:11:23;;;;;;;31.27;17.27;;;15.60;34.40;;;;;;5026744;28;20204;-56
2022/03/25 10:14:09;;;;;;;28.37;17.30;;;15.80;33.10;;;;;;5034443;28;20429;-56
2022/03/25 10:16:35;;;;;;;30.53;16.93;;;15.90;31.50;;;;;;5029692;28;20743;-57
2022/03/25 10:19:00;;;;;;;27.83;16.70;;;16.00;32.10;;;;;;5035115;28;20430;-57
2022/03/25 10:21:29;;;;;;;29.37;16.90;;;16.10;31.80;;;;;;5033507;28;20210;-56
2022/03/25 10:23:55;;;;;;;25.67;15.50;;;16.20;31.80;;;;;;5039089;28;20206;-56
2022/03/25 10:26:35;;;;;;;30.57;16.07;;;16.30;32.20;;;;;;5036779;28;20427;-58
2022/03/25 10:29:01;;;;;;;27.83;16.60;;;16.50;32.60;;;;;;5030927;28;20175;-56
2022/03/25 10:31:27;;;;;;;31.03;17.50;;;16.60;30.80;;;;;;5034149;28;20488;-57
2022/03/25 10:33:58;;;;;;;31.53;18.03;;;16.70;30.60;;;;;;5037148;28;20180;-56
2022/03/25 10:36:25;;;;;;;28.30;17.13;;;16.80;31.50;;;;;;5030719;28;20168;-56
2022/03/25 10:39:01;;;;;;;28.30;17.93;;;16.90;30.40;;;;;;5028444;28;20941;-57
2022/03/25 10:41:41;;;;;;;26.47;16.70;;;17.00;29.90;;;;;;5025109;28;20421;-57
2022/03/25 10:44:09;;;;;;;26.80;16.37;;;17.10;29.90;;;;;;5028180;28;20898;-57
2022/03/25 10:46:36;;;;;;;28.77;17.83;;;17.20;29.90;;;;;;5038637;28;20420;-56
2022/03/25 10:49:05;;;;;;;27.87;17.67;;;17.30;29.80;;;;;;5035421;28;20542;-56
2022/03/25 10:51:36;;;;;;;25.87;17.00;;;17.40;28.20;;;;;;5033522;28;20437;-59
2022/03/25 10:54:07;;;;;;;33.53;17.27;;;17.40;27.70;;;;;;5030663;28;20419;-57
2022/03/25 10:56:51;;;;;;;30.13;17.60;;;17.50;28.40;;;;;;5031445;28;20422;-56
2022/03/25 10:59:20;;;;;;;24.93;16.43;;;17.60;29.00;;;;;;5024970;28;20446;-57
2022/03/25 11:01:47;;;;;;;37.30;16.07;;;17.70;28.60;;;;;;5032776;28;20442;-57
2022/03/25 11:04:14;;;;;;;28.57;17.33;;;17.80;28.90;;;;;;5027601;28;20493;-57
2022/03/25 11:06:42;;;;;;;28.87;16.60;;;17.80;28.40;;;;;;5024366;28;20434;-57
2022/03/25 11:09:09;;;;;;;28.77;16.17;;;17.90;27.80;;;;;;5031410;28;20414;-57
2022/03/25 11:11:36;;;;;;;33.20;17.30;;;18.00;28.00;;;;;;5030108;28;20505;-57
2022/03/25 11:14:04;;;;;;;28.17;17.73;;;18.00;27.40;;;;;;5035484;28;20426;-54
2022/03/25 11:16:33;;;;;;;25.50;16.10;;;18.10;27.60;;;;;;5034569;28;20482;-55
2022/03/25 11:18:59;;;;;;;25.30;16.40;;;18.20;27.60;;;;;;5029702;28;20430;-55
2022/03/25 11:21:27;;;;;;;30.53;17.57;;;18.30;27.20;;;;;;5032306;28;20430;-54
2022/03/25 11:23:56;;;;;;;29.27;17.10;;;18.30;27.30;;;;;;5025073;28;20486;-54
2022/03/25 11:26:26;;;;;;;28.80;16.40;;;18.40;26.90;;;;;;5028208;28;20441;-57
2022/03/25 11:28:56;;;;;;;25.30;15.67;;;18.50;27.30;;;;;;5022039;28;20442;-55
2022/03/25 11:31:24;;;;;;;27.33;16.90;;;18.60;27.20;;;;;;5026983;28;22165;-55
2022/03/25 11:34:10;;;;;;;26.37;15.77;;;18.60;26.90;;;;;;5025804;28;20689;-56
2022/03/25 11:36:40;;;;;;;24.23;14.80;;;18.80;28.10;;;;;;5028120;28;20446;-55
2022/03/25 11:39:24;;;;;;;25.13;16.40;;;18.90;29.50;;;;;;5028069;28;21258;-55
2022/03/25 11:41:53;;;;;;;27.90;16.97;;;19.10;28.60;;;;;;5027121;28;20438;-55
2022/03/25 11:44:23;;;;;;;26.53;16.00;;;19.20;26.10;;;;;;5025926;28;20458;-54
2022/03/25 11:47:01;;;;;;;28.13;17.17;;;19.30;27.60;;;;;;5028978;28;20509;-55
2022/03/25 11:49:30;;;;;;;23.93;14.80;;;19.50;27.20;;;;;;5027365;28;20458;-54
2022/03/25 11:51:56;;;;;;;25.00;15.73;;;19.70;26.60;;;;;;5033426;28;20429;-54
2022/03/25 11:54:40;;;;;;;23.30;15.00;;;19.80;25.40;;;;;;5028756;28;20460;-57
2022/03/25 11:57:20;;;;;;;23.17;15.17;;;19.90;27.70;;;;;;5026970;28;20571;-62
2022/03/25 11:59:50;;;;;;;21.10;14.00;;;20.00;26.00;;;;;;5025842;28;20461;-57
2022/03/25 12:02:30;;;;;;;23.90;14.80;;;20.20;24.20;;;;;;5015386;28;20525;-57
2022/03/25 12:04:58;;;;;;;24.93;14.90;;;20.20;23.30;;;;;;5023515;28;21827;-59
2022/03/25 12:07:24;;;;;;;24.43;14.97;;;20.10;23.30;;;;;;5026868;28;20445;-56
2022/03/25 12:09:49;;;;;;;26.67;15.60;;;20.10;24.50;;;;;;5022791;28;20458;-54
2022/03/25 12:12:15;;;;;;;25.00;16.73;;;20.20;25.60;;;;;;5024595;28;20169;-60
2022/03/25 12:15:13;;;;;;;36.07;17.30;;;20.40;26.20;;;;;;5024283;28;20199;-60
2022/03/25 12:17:39;;;;;;;24.33;16.37;;;20.60;25.70;;;;;;5025865;28;20184;-58
2022/03/25 12:20:07;;;;;;;27.90;16.30;;;20.70;25.80;;;;;;5032470;28;20578;-57
2022/03/25 12:22:36;;;;;;;25.93;16.40;;;20.90;25.80;;;;;;5030645;28;21098;-58
2022/03/25 12:25:11;;;;;;;25.60;16.37;;;21.00;26.00;;;;;;5023942;28;20478;-58
2022/03/25 12:27:38;;;;;;;30.90;17.10;;;21.10;24.80;;;;;;5024634;28;20449;-58
2022/03/25 12:30:04;;;;;;;33.40;16.00;;;21.30;26.00;;;;;;5033537;28;20476;-57
2022/03/25 12:32:35;;;;;;;33.03;16.50;;;21.40;25.50;;;;;;5029683;28;20943;-58
2022/03/25 12:35:16;;;;;;;26.63;16.00;;;21.50;25.80;;;;;;5024937;28;20430;-58
2022/03/25 12:37:57;;;;;;;22.50;15.63;;;21.60;25.60;;;;;;5037626;28;20425;-57
2022/03/25 12:40:32;;;;;;;23.03;15.27;;;21.70;25.30;;;;;;5019488;28;20457;-56
2022/03/25 12:43:02;;;;;;;28.00;16.70;;;21.80;24.60;;;;;;5025280;28;20438;-56